Terminal Aerodrome Forecast
Issued by NWS

Home | Current Version | Previous Version | Graphics & Text | Print | Product List | Glossary On
Versions: 1 2 3 4 5 6 7 8 9 10 11 12 13 14 15 16 17 18 19 20 21 22
000
FTUS41 KCLE 260200 AAA
TAFFDY
TAF AMD
KFDY 260225Z 2602/2624 05014G22KT 2SM -SN BR SCT012 OVC025
      TEMPO 2602/2604 1SM -SN OVC012
     FM260400 04014G20KT 4SM -SN SCT015 OVC035
      TEMPO 2604/2606 2SM -SN OVC015
     FM260600 02011KT P6SM -SN OVC025
     FM261500 36010KT P6SM BKN035
     FM262000 35010KT P6SM SCT045 BKN250=

USA.gov is the U.S. government's official web portal to all federal, state and local government web resources and services.